sensor_id;sensor_type;location;lat;lon;timestamp;pressure;altitude;pressure_sealevel;temperature;humidity
69037;BME280;58547;51.690;5.186;2022-07-22T00:01:16;102241.69;;;15.71;92.66
69037;BME280;58547;51.690;5.186;2022-07-22T00:03:41;102234.50;;;15.75;92.35
69037;BME280;58547;51.690;5.186;2022-07-22T00:06:06;102244.94;;;15.76;93.43
69037;BME280;58547;51.690;5.186;2022-07-22T00:08:31;102242.41;;;15.75;92.31
69037;BME280;58547;51.690;5.186;2022-07-22T00:10:57;102240.28;;;15.64;92.92
69037;BME280;58547;51.690;5.186;2022-07-22T00:13:22;102245.22;;;15.70;92.80
69037;BME280;58547;51.690;5.186;2022-07-22T00:15:47;102235.22;;;15.61;92.57
69037;BME280;58547;51.690;5.186;2022-07-22T00:18:13;102244.56;;;15.67;92.63
69037;BME280;58547;51.690;5.186;2022-07-22T00:20:38;102243.03;;;15.63;93.61
69037;BME280;58547;51.690;5.186;2022-07-22T00:23:03;102235.72;;;15.68;92.70
69037;BME280;58547;51.690;5.186;2022-07-22T00:25:29;102227.69;;;15.71;92.64
69037;BME280;58547;51.690;5.186;2022-07-22T00:27:55;102234.59;;;15.73;93.03
69037;BME280;58547;51.690;5.186;2022-07-22T00:30:20;102229.84;;;15.80;92.47
69037;BME280;58547;51.690;5.186;2022-07-22T00:32:45;102226.19;;;15.83;92.92
69037;BME280;58547;51.690;5.186;2022-07-22T00:35:11;102229.44;;;15.88;92.29
69037;BME280;58547;51.690;5.186;2022-07-22T00:37:36;102222.44;;;15.87;93.47
69037;BME280;58547;51.690;5.186;2022-07-22T00:40:02;102225.69;;;15.92;92.47
69037;BME280;58547;51.690;5.186;2022-07-22T00:42:27;102226.53;;;15.92;92.59
69037;BME280;58547;51.690;5.186;2022-07-22T00:44:53;102219.31;;;15.96;93.06
69037;BME280;58547;51.690;5.186;2022-07-22T00:47:18;102224.34;;;16.01;92.25
69037;BME280;58547;51.690;5.186;2022-07-22T00:49:43;102224.66;;;15.94;92.15
69037;BME280;58547;51.690;5.186;2022-07-22T00:52:08;102219.47;;;15.93;91.99
69037;BME280;58547;51.690;5.186;2022-07-22T00:54:36;102222.63;;;15.84;92.76
69037;BME280;58547;51.690;5.186;2022-07-22T00:57:02;102221.19;;;15.78;92.61
69037;BME280;58547;51.690;5.186;2022-07-22T00:59:27;102217.53;;;15.81;92.23
69037;BME280;58547;51.690;5.186;2022-07-22T01:01:53;102225.75;;;15.74;92.52
69037;BME280;58547;51.690;5.186;2022-07-22T01:04:18;102218.88;;;15.72;94.43
69037;BME280;58547;51.690;5.186;2022-07-22T01:06:43;102221.09;;;15.80;92.98
69037;BME280;58547;51.690;5.186;2022-07-22T01:09:10;102215.66;;;15.83;93.70
69037;BME280;58547;51.690;5.186;2022-07-22T01:11:35;102214.75;;;15.84;93.49
69037;BME280;58547;51.690;5.186;2022-07-22T01:14:01;102210.13;;;15.87;92.12
69037;BME280;58547;51.690;5.186;2022-07-22T01:16:26;102210.06;;;15.73;92.90
69037;BME280;58547;51.690;5.186;2022-07-22T01:18:51;102207.47;;;15.71;91.84
69037;BME280;58547;51.690;5.186;2022-07-22T01:21:17;102206.97;;;15.65;93.31
69037;BME280;58547;51.690;5.186;2022-07-22T01:23:43;102208.34;;;15.72;92.54
69037;BME280;58547;51.690;5.186;2022-07-22T01:26:09;102210.44;;;15.65;92.87
69037;BME280;58547;51.690;5.186;2022-07-22T01:28:34;102211.91;;;15.71;92.04
69037;BME280;58547;51.690;5.186;2022-07-22T01:30:59;102211.13;;;15.69;92.06
69037;BME280;58547;51.690;5.186;2022-07-22T01:33:25;102202.63;;;15.64;92.91
69037;BME280;58547;51.690;5.186;2022-07-22T01:35:50;102205.09;;;15.67;91.97
69037;BME280;58547;51.690;5.186;2022-07-22T01:38:16;102210.44;;;15.65;93.42
69037;BME280;58547;51.690;5.186;2022-07-22T01:40:42;102205.88;;;15.69;92.16
69037;BME280;58547;51.690;5.186;2022-07-22T01:43:08;102208.06;;;15.61;92.63
69037;BME280;58547;51.690;5.186;2022-07-22T01:45:33;102202.53;;;15.65;91.92
69037;BME280;58547;51.690;5.186;2022-07-22T01:47:59;102207.72;;;15.67;91.56
69037;BME280;58547;51.690;5.186;2022-07-22T01:50:24;102210.44;;;15.65;91.17
69037;BME280;58547;51.690;5.186;2022-07-22T01:52:50;102203.78;;;15.58;92.30
69037;BME280;58547;51.690;5.186;2022-07-22T01:55:15;102207.03;;;15.63;91.84
69037;BME280;58547;51.690;5.186;2022-07-22T01:57:41;102211.78;;;15.56;92.50
69037;BME280;58547;51.690;5.186;2022-07-22T02:00:06;102213.97;;;15.64;91.76
69037;BME280;58547;51.690;5.186;2022-07-22T02:02:33;102216.94;;;15.58;93.54
69037;BME280;58547;51.690;5.186;2022-07-22T02:04:58;102219.25;;;15.64;92.24
69037;BME280;58547;51.690;5.186;2022-07-22T02:07:23;102222.06;;;15.61;93.44
69037;BME280;58547;51.690;5.186;2022-07-22T02:09:51;102215.69;;;15.65;95.03
69037;BME280;58547;51.690;5.186;2022-07-22T02:12:17;102217.38;;;15.66;93.69
69037;BME280;58547;51.690;5.186;2022-07-22T02:14:42;102207.56;;;15.70;92.75
69037;BME280;58547;51.690;5.186;2022-07-22T02:17:08;102205.88;;;15.69;93.72
69037;BME280;58547;51.690;5.186;2022-07-22T02:19:33;102199.44;;;15.74;92.67
69037;BME280;58547;51.690;5.186;2022-07-22T02:21:58;102200.13;;;15.78;94.39
69037;BME280;58547;51.690;5.186;2022-07-22T02:24:23;102206.06;;;15.82;92.80
69037;BME280;58547;51.690;5.186;2022-07-22T02:26:49;102199.78;;;15.84;94.82
69037;BME280;58547;51.690;5.186;2022-07-22T02:29:14;102201.25;;;15.90;92.92
69037;BME280;58547;51.690;5.186;2022-07-22T02:31:39;102203.88;;;15.90;93.99
69037;BME280;58547;51.690;5.186;2022-07-22T02:34:04;102205.41;;;15.94;92.67
69037;BME280;58547;51.690;5.186;2022-07-22T02:36:30;102208.53;;;15.85;93.68
69037;BME280;58547;51.690;5.186;2022-07-22T02:38:55;102201.47;;;15.85;92.69
69037;BME280;58547;51.690;5.186;2022-07-22T02:41:21;102194.53;;;15.84;94.25
69037;BME280;58547;51.690;5.186;2022-07-22T02:43:46;102193.44;;;15.88;92.77
69037;BME280;58547;51.690;5.186;2022-07-22T02:46:11;102185.59;;;15.87;93.60
69037;BME280;58547;51.690;5.186;2022-07-22T02:48:36;102189.63;;;15.94;92.79
69037;BME280;58547;51.690;5.186;2022-07-22T02:51:02;102192.25;;;15.94;93.21
69037;BME280;58547;51.690;5.186;2022-07-22T02:53:28;102186.03;;;15.95;94.22
69037;BME280;58547;51.690;5.186;2022-07-22T02:55:53;102187.56;;;15.99;93.03
69037;BME280;58547;51.690;5.186;2022-07-22T02:58:18;102186.66;;;16.00;93.86
69037;BME280;58547;51.690;5.186;2022-07-22T03:00:44;102196.06;;;16.04;92.80
69037;BME280;58547;51.690;5.186;2022-07-22T03:03:09;102190.81;;;16.04;94.07
69037;BME280;58547;51.690;5.186;2022-07-22T03:05:34;102190.63;;;16.07;92.93
69037;BME280;58547;51.690;5.186;2022-07-22T03:07:59;102184.00;;;16.00;93.31
69037;BME280;58547;51.690;5.186;2022-07-22T03:10:25;102182.03;;;16.04;92.40
69037;BME280;58547;51.690;5.186;2022-07-22T03:12:50;102184.00;;;16.00;93.88
69037;BME280;58547;51.690;5.186;2022-07-22T03:15:15;102181.03;;;16.06;92.89
69037;BME280;58547;51.690;5.186;2022-07-22T03:17:41;102172.47;;;16.03;93.61
69037;BME280;58547;51.690;5.186;2022-07-22T03:20:07;102185.53;;;16.04;92.46
69037;BME280;58547;51.690;5.186;2022-07-22T03:22:33;102182.91;;;16.04;94.50
69037;BME280;58547;51.690;5.186;2022-07-22T03:24:58;102181.03;;;16.06;92.68
69037;BME280;58547;51.690;5.186;2022-07-22T03:27:24;102181.97;;;16.05;93.94
69037;BME280;58547;51.690;5.186;2022-07-22T03:29:49;102178.41;;;16.06;92.53
69037;BME280;58547;51.690;5.186;2022-07-22T03:32:14;102175.09;;;16.03;93.93
69037;BME280;58547;51.690;5.186;2022-07-22T03:34:40;102176.69;;;16.05;92.53
69037;BME280;58547;51.690;5.186;2022-07-22T03:37:05;102183.66;;;16.06;93.97
69037;BME280;58547;51.690;5.186;2022-07-22T03:39:30;102181.03;;;16.06;92.53
69037;BME280;58547;51.690;5.186;2022-07-22T03:41:55;102183.06;;;16.01;93.83
69037;BME280;58547;51.690;5.186;2022-07-22T03:44:21;102185.78;;;15.99;92.48
69037;BME280;58547;51.690;5.186;2022-07-22T03:46:46;102186.72;;;15.98;92.28
69037;BME280;58547;51.690;5.186;2022-07-22T03:49:11;102186.09;;;15.93;93.46
69037;BME280;58547;51.690;5.186;2022-07-22T03:51:37;102189.44;;;15.97;92.48
69037;BME280;58547;51.690;5.186;2022-07-22T03:54:02;102186.97;;;15.94;94.54
69037;BME280;58547;51.690;5.186;2022-07-22T03:56:27;102191.31;;;15.95;92.57
69037;BME280;58547;51.690;5.186;2022-07-22T03:58:53;102195.72;;;15.94;94.81
69037;BME280;58547;51.690;5.186;2022-07-22T04:01:18;102196.41;;;15.98;92.61
69037;BME280;58547;51.690;5.186;2022-07-22T04:03:43;102194.69;;;15.97;93.95
69037;BME280;58547;51.690;5.186;2022-07-22T04:06:08;102198.09;;;15.99;92.55
69037;BME280;58547;51.690;5.186;2022-07-22T04:08:34;102194.00;;;15.93;93.70
69037;BME280;58547;51.690;5.186;2022-07-22T04:10:59;102193.94;;;15.95;92.75
69037;BME280;58547;51.690;5.186;2022-07-22T04:13:25;102197.75;;;15.89;94.07
69037;BME280;58547;51.690;5.186;2022-07-22T04:15:50;102205.22;;;15.97;92.68
69037;BME280;58547;51.690;5.186;2022-07-22T04:18:15;102196.56;;;15.95;93.88
69037;BME280;58547;51.690;5.186;2022-07-22T04:20:42;102193.94;;;15.95;93.83
69037;BME280;58547;51.690;5.186;2022-07-22T04:23:08;102198.09;;;15.99;92.89
69037;BME280;58547;51.690;5.186;2022-07-22T04:25:33;102191.31;;;15.95;93.51
69037;BME280;58547;51.690;5.186;2022-07-22T04:27:58;102188.50;;;15.98;92.80
69037;BME280;58547;51.690;5.186;2022-07-22T04:30:23;102187.91;;;15.93;93.36
69037;BME280;58547;51.690;5.186;2022-07-22T04:32:49;102186.72;;;15.98;92.36
69037;BME280;58547;51.690;5.186;2022-07-22T04:35:14;102185.88;;;15.98;92.31
69037;BME280;58547;51.690;5.186;2022-07-22T04:37:39;102183.25;;;15.98;94.14
69037;BME280;58547;51.690;5.186;2022-07-22T04:40:05;102178.63;;;16.02;92.92
69037;BME280;58547;51.690;5.186;2022-07-22T04:42:30;102176.13;;;16.00;94.25
69037;BME280;58547;51.690;5.186;2022-07-22T04:44:55;102176.78;;;16.04;92.92
69037;BME280;58547;51.690;5.186;2022-07-22T04:47:21;102174.91;;;16.06;94.30
69037;BME280;58547;51.690;5.186;2022-07-22T04:49:46;102177.38;;;16.09;92.69
69037;BME280;58547;51.690;5.186;2022-07-22T04:52:11;102175.59;;;16.09;93.85
69037;BME280;58547;51.690;5.186;2022-07-22T04:54:36;102184.94;;;16.15;92.54
69037;BME280;58547;51.690;5.186;2022-07-22T04:57:02;102176.00;;;16.17;94.64
69037;BME280;58547;51.690;5.186;2022-07-22T04:59:27;102174.13;;;16.19;92.82
69037;BME280;58547;51.690;5.186;2022-07-22T05:01:52;102172.06;;;16.25;92.82
69037;BME280;58547;51.690;5.186;2022-07-22T05:04:17;102179.81;;;16.28;94.28
69037;BME280;58547;51.690;5.186;2022-07-22T05:06:43;102175.22;;;16.31;92.80
69037;BME280;58547;51.690;5.186;2022-07-22T05:09:08;102177.94;;;16.30;94.70
69037;BME280;58547;51.690;5.186;2022-07-22T05:11:33;102179.72;;;16.29;93.31
69037;BME280;58547;51.690;5.186;2022-07-22T05:13:58;102176.19;;;15.98;94.48
69037;BME280;58547;51.690;5.186;2022-07-22T05:16:24;102182.56;;;15.94;94.04
69037;BME280;58547;51.690;5.186;2022-07-22T05:18:49;102179.31;;;15.89;97.32
69037;BME280;58547;51.690;5.186;2022-07-22T05:21:14;102178.22;;;15.93;95.30
69037;BME280;58547;51.690;5.186;2022-07-22T05:23:39;102184.16;;;15.97;95.44
69037;BME280;58547;51.690;5.186;2022-07-22T05:26:05;102177.22;;;15.96;94.08
69037;BME280;58547;51.690;5.186;2022-07-22T05:28:30;102182.38;;;15.97;95.52
69037;BME280;58547;51.690;5.186;2022-07-22T05:30:55;102174.31;;;16.01;94.04
69037;BME280;58547;51.690;5.186;2022-07-22T05:33:21;102177.03;;;15.99;94.44
69037;BME280;58547;51.690;5.186;2022-07-22T05:35:46;102174.94;;;15.90;95.47
69037;BME280;58547;51.690;5.186;2022-07-22T05:38:11;102180.50;;;15.99;95.02
69037;BME280;58547;51.690;5.186;2022-07-22T05:40:37;102178.22;;;16.09;95.73
69037;BME280;58547;51.690;5.186;2022-07-22T05:43:02;102185.50;;;16.20;94.64
69037;BME280;58547;51.690;5.186;2022-07-22T05:45:27;102193.53;;;16.33;94.81
69037;BME280;58547;51.690;5.186;2022-07-22T05:47:52;102193.97;;;16.41;94.74
69037;BME280;58547;51.690;5.186;2022-07-22T05:50:18;102197.19;;;16.46;94.30
69037;BME280;58547;51.690;5.186;2022-07-22T05:52:44;102194.28;;;16.51;92.28
69037;BME280;58547;51.690;5.186;2022-07-22T05:55:09;102198.38;;;16.56;89.02
69037;BME280;58547;51.690;5.186;2022-07-22T05:57:35;102188.94;;;16.52;89.57
69037;BME280;58547;51.690;5.186;2022-07-22T06:00:00;102184.06;;;16.61;90.88
69037;BME280;58547;51.690;5.186;2022-07-22T06:02:26;102182.84;;;16.66;88.62
69037;BME280;58547;51.690;5.186;2022-07-22T06:04:51;102185.03;;;16.74;89.59
69037;BME280;58547;51.690;5.186;2022-07-22T06:07:16;102183.84;;;16.79;87.51
69037;BME280;58547;51.690;5.186;2022-07-22T06:09:42;102191.50;;;16.84;88.43
69037;BME280;58547;51.690;5.186;2022-07-22T06:12:08;102193.63;;;16.77;86.06
69037;BME280;58547;51.690;5.186;2022-07-22T06:14:33;102188.22;;;16.79;87.72
69037;BME280;58547;51.690;5.186;2022-07-22T06:16:58;102181.44;;;16.75;86.86
69037;BME280;58547;51.690;5.186;2022-07-22T06:19:24;102189.94;;;16.80;87.64
69037;BME280;58547;51.690;5.186;2022-07-22T06:21:49;102182.00;;;16.82;88.19
69037;BME280;58547;51.690;5.186;2022-07-22T06:24:15;102187.91;;;16.85;88.76
69037;BME280;58547;51.690;5.186;2022-07-22T06:26:40;102185.09;;;16.88;86.51
69037;BME280;58547;51.690;5.186;2022-07-22T06:29:05;102179.91;;;16.87;85.15
69037;BME280;58547;51.690;5.186;2022-07-22T06:31:30;102184.91;;;16.91;84.84
69037;BME280;58547;51.690;5.186;2022-07-22T06:33:56;102187.53;;;16.91;84.99
69037;BME280;58547;51.690;5.186;2022-07-22T06:36:21;102192.63;;;16.94;83.33
69037;BME280;58547;51.690;5.186;2022-07-22T06:38:46;102184.66;;;16.96;84.72
69037;BME280;58547;51.690;5.186;2022-07-22T06:41:12;102182.09;;;16.94;83.55
69037;BME280;58547;51.690;5.186;2022-07-22T06:43:38;102190.75;;;16.96;82.30
69037;BME280;58547;51.690;5.186;2022-07-22T06:46:04;102188.81;;;17.00;80.87
69037;BME280;58547;51.690;5.186;2022-07-22T06:48:29;102188.22;;;17.09;83.54
69037;BME280;58547;51.690;5.186;2022-07-22T06:50:54;102188.53;;;17.19;83.78
69037;BME280;58547;51.690;5.186;2022-07-22T06:53:20;102189.16;;;17.23;80.69
69037;BME280;58547;51.690;5.186;2022-07-22T06:55:45;102190.41;;;17.31;82.46
69037;BME280;58547;51.690;5.186;2022-07-22T06:58:11;102180.78;;;17.30;81.62
69037;BME280;58547;51.690;5.186;2022-07-22T07:00:36;102191.81;;;17.37;81.02
69037;BME280;58547;51.690;5.186;2022-07-22T07:03:02;102196.72;;;17.43;82.48
69037;BME280;58547;51.690;5.186;2022-07-22T07:05:27;102194.16;;;17.56;80.99
69037;BME280;58547;51.690;5.186;2022-07-22T07:07:54;102196.25;;;17.51;76.33
69037;BME280;58547;51.690;5.186;2022-07-22T07:10:19;102193.69;;;17.49;76.90
69037;BME280;58547;51.690;5.186;2022-07-22T07:12:45;102184.34;;;17.44;75.25
69037;BME280;58547;51.690;5.186;2022-07-22T07:15:10;102185.78;;;17.49;79.96
69037;BME280;58547;51.690;5.186;2022-07-22T07:17:37;102170.91;;;17.48;76.74
69037;BME280;58547;51.690;5.186;2022-07-22T07:20:02;102175.97;;;17.51;76.16
69037;BME280;58547;51.690;5.186;2022-07-22T07:22:28;102178.25;;;17.43;77.53
69037;BME280;58547;51.690;5.186;2022-07-22T07:24:53;102175.06;;;17.38;76.75
69037;BME280;58547;51.690;5.186;2022-07-22T07:27:19;102177.41;;;17.43;79.12
69037;BME280;58547;51.690;5.186;2022-07-22T07:29:44;102179.81;;;17.60;77.46
69037;BME280;58547;51.690;5.186;2022-07-22T07:32:11;102173.16;;;17.69;74.89
69037;BME280;58547;51.690;5.186;2022-07-22T07:34:36;102179.63;;;17.77;75.91
69037;BME280;58547;51.690;5.186;2022-07-22T07:37:01;102182.91;;;17.81;76.86
69037;BME280;58547;51.690;5.186;2022-07-22T07:39:27;102178.31;;;17.85;76.98
69037;BME280;58547;51.690;5.186;2022-07-22T07:41:52;102184.91;;;17.77;74.56
69037;BME280;58547;51.690;5.186;2022-07-22T07:44:18;102188.28;;;17.79;73.68
69037;BME280;58547;51.690;5.186;2022-07-22T07:46:43;102185.28;;;17.86;76.70
69037;BME280;58547;51.690;5.186;2022-07-22T07:49:08;102183.09;;;17.92;74.68
69037;BME280;58547;51.690;5.186;2022-07-22T07:51:34;102174.88;;;17.97;74.90
69037;BME280;58547;51.690;5.186;2022-07-22T07:53:59;102182.63;;;18.00;72.66
69037;BME280;58547;51.690;5.186;2022-07-22T07:56:25;102166.22;;;17.95;72.01
69037;BME280;58547;51.690;5.186;2022-07-22T07:58:50;102187.91;;;18.00;73.67
69037;BME280;58547;51.690;5.186;2022-07-22T08:01:15;102179.41;;;17.95;72.01
69037;BME280;58547;51.690;5.186;2022-07-22T08:03:41;102174.53;;;17.89;71.31
69037;BME280;58547;51.690;5.186;2022-07-22T08:06:06;102170.31;;;17.86;73.30
69037;BME280;58547;51.690;5.186;2022-07-22T08:08:32;102165.28;;;17.96;73.91
69037;BME280;58547;51.690;5.186;2022-07-22T08:10:57;102167.00;;;18.10;73.92
69037;BME280;58547;51.690;5.186;2022-07-22T08:13:22;102159.25;;;18.21;69.54
69037;BME280;58547;51.690;5.186;2022-07-22T08:15:47;102175.56;;;18.40;67.43
69037;BME280;58547;51.690;5.186;2022-07-22T08:18:13;102176.16;;;18.58;72.49
69037;BME280;58547;51.690;5.186;2022-07-22T08:20:38;102178.47;;;18.76;65.28
69037;BME280;58547;51.690;5.186;2022-07-22T08:23:04;102170.59;;;18.89;66.18
69037;BME280;58547;51.690;5.186;2022-07-22T08:25:30;102167.00;;;19.15;68.66
69037;BME280;58547;51.690;5.186;2022-07-22T08:27:55;102173.75;;;19.32;64.19
69037;BME280;58547;51.690;5.186;2022-07-22T08:30:21;102175.97;;;19.38;64.51
69037;BME280;58547;51.690;5.186;2022-07-22T08:32:48;102165.59;;;19.35;61.69
69037;BME280;58547;51.690;5.186;2022-07-22T08:35:14;102159.13;;;19.27;62.52
69037;BME280;58547;51.690;5.186;2022-07-22T08:37:42;102163.19;;;19.19;64.58
69037;BME280;58547;51.690;5.186;2022-07-22T08:40:08;102157.47;;;19.13;61.65
69037;BME280;58547;51.690;5.186;2022-07-22T08:42:38;102152.19;;;19.13;64.85
69037;BME280;58547;51.690;5.186;2022-07-22T08:45:05;102156.44;;;19.03;62.53
69037;BME280;58547;51.690;5.186;2022-07-22T08:47:30;102150.81;;;19.07;60.52
69037;BME280;58547;51.690;5.186;2022-07-22T08:49:55;102147.84;;;19.12;61.14
69037;BME280;58547;51.690;5.186;2022-07-22T08:52:21;102152.38;;;19.23;61.51
69037;BME280;58547;51.690;5.186;2022-07-22T08:54:47;102151.94;;;19.29;60.92
69037;BME280;58547;51.690;5.186;2022-07-22T08:57:12;102146.84;;;19.38;62.48
69037;BME280;58547;51.690;5.186;2022-07-22T08:59:51;102144.81;;;19.55;60.80
69037;BME280;58547;51.690;5.186;2022-07-22T09:02:17;102145.81;;;19.78;59.97
69037;BME280;58547;51.690;5.186;2022-07-22T09:04:50;102150.44;;;19.87;56.86
69037;BME280;58547;51.690;5.186;2022-07-22T09:07:34;102155.28;;;19.93;57.75
69037;BME280;58547;51.690;5.186;2022-07-22T09:10:02;102154.16;;;20.09;57.86
69037;BME280;58547;51.690;5.186;2022-07-22T09:12:28;102153.91;;;20.36;56.81
69037;BME280;58547;51.690;5.186;2022-07-22T09:14:57;102158.97;;;20.39;55.61
69037;BME280;58547;51.690;5.186;2022-07-22T09:17:29;102157.84;;;20.54;55.04
69037;BME280;58547;51.690;5.186;2022-07-22T09:19:57;102153.31;;;20.79;57.16
69037;BME280;58547;51.690;5.186;2022-07-22T09:22:41;102147.94;;;21.03;55.47
69037;BME280;58547;51.690;5.186;2022-07-22T09:27:52;102151.41;;;21.03;51.01
69037;BME280;58547;51.690;5.186;2022-07-22T09:30:21;102146.00;;;20.94;51.48
69037;BME280;58547;51.690;5.186;2022-07-22T09:32:47;102152.47;;;20.67;50.71
69037;BME280;58547;51.690;5.186;2022-07-22T09:35:14;102139.22;;;20.43;52.98
69037;BME280;58547;51.690;5.186;2022-07-22T09:37:50;102133.06;;;20.31;53.82
69037;BME280;58547;51.690;5.186;2022-07-22T09:40:24;102125.88;;;20.45;54.00
69037;BME280;58547;51.690;5.186;2022-07-22T09:42:55;102139.22;;;20.78;55.56
69037;BME280;58547;51.690;5.186;2022-07-22T09:45:22;102124.75;;;20.82;51.79
69037;BME280;58547;51.690;5.186;2022-07-22T09:47:49;102130.44;;;21.12;56.57
69037;BME280;58547;51.690;5.186;2022-07-22T09:50:17;102128.72;;;21.56;53.34
69037;BME280;58547;51.690;5.186;2022-07-22T09:52:43;102139.00;;;21.93;49.37
69037;BME280;58547;51.690;5.186;2022-07-22T09:55:09;102132.22;;;22.00;47.81
69037;BME280;58547;51.690;5.186;2022-07-22T09:57:34;102135.56;;;22.13;49.46
69037;BME280;58547;51.690;5.186;2022-07-22T10:00:00;102129.38;;;22.45;47.09
69037;BME280;58547;51.690;5.186;2022-07-22T10:02:27;102136.06;;;22.60;47.10
69037;BME280;58547;51.690;5.186;2022-07-22T10:04:53;102133.13;;;22.63;50.34
69037;BME280;58547;51.690;5.186;2022-07-22T10:07:19;102135.47;;;22.57;47.90
69037;BME280;58547;51.690;5.186;2022-07-22T10:09:46;102133.22;;;22.52;46.88
69037;BME280;58547;51.690;5.186;2022-07-22T10:12:12;102138.25;;;22.34;47.93
69037;BME280;58547;51.690;5.186;2022-07-22T10:14:37;102140.25;;;22.21;49.50
69037;BME280;58547;51.690;5.186;2022-07-22T10:17:03;102138.09;;;22.15;48.28
69037;BME280;58547;51.690;5.186;2022-07-22T10:19:29;102135.91;;;22.41;50.66
69037;BME280;58547;51.690;5.186;2022-07-22T10:21:54;102143.06;;;22.61;48.67
69037;BME280;58547;51.690;5.186;2022-07-22T10:24:20;102144.22;;;22.69;46.89
69037;BME280;58547;51.690;5.186;2022-07-22T10:26:51;102134.81;;;22.95;48.57
69037;BME280;58547;51.690;5.186;2022-07-22T10:29:30;102137.16;;;23.10;47.14
69037;BME280;58547;51.690;5.186;2022-07-22T10:35:28;102134.13;;;23.24;48.60
69037;BME280;58547;51.690;5.186;2022-07-22T10:40:14;102134.78;;;23.07;47.43
69037;BME280;58547;51.690;5.186;2022-07-22T10:45:37;102138.41;;;23.06;49.00
69037;BME280;58547;51.690;5.186;2022-07-22T10:48:08;102139.34;;;22.74;47.47
69037;BME280;58547;51.690;5.186;2022-07-22T10:55:39;102141.97;;;23.16;45.74
69037;BME280;58547;51.690;5.186;2022-07-22T11:01:00;102121.13;;;23.91;45.33
69037;BME280;58547;51.690;5.186;2022-07-22T11:03:30;102125.03;;;24.16;44.23
69037;BME280;58547;51.690;5.186;2022-07-22T11:05:56;102111.69;;;24.06;42.59
69037;BME280;58547;51.690;5.186;2022-07-22T11:08:22;102097.84;;;23.93;42.71
69037;BME280;58547;51.690;5.186;2022-07-22T11:10:51;102102.13;;;24.33;44.47
69037;BME280;58547;51.690;5.186;2022-07-22T11:13:32;102104.03;;;24.79;45.07
69037;BME280;58547;51.690;5.186;2022-07-22T11:16:17;102103.31;;;25.15;42.77
69037;BME280;58547;51.690;5.186;2022-07-22T11:18:52;102111.13;;;24.89;43.34
69037;BME280;58547;51.690;5.186;2022-07-22T11:21:22;102112.94;;;24.60;43.17
69037;BME280;58547;51.690;5.186;2022-07-22T11:23:50;102117.75;;;24.28;43.12
69037;BME280;58547;51.690;5.186;2022-07-22T11:26:20;102111.84;;;24.14;43.93
69037;BME280;58547;51.690;5.186;2022-07-22T11:28:48;102116.63;;;23.81;43.70
69037;BME280;58547;51.690;5.186;2022-07-22T11:31:16;102108.81;;;23.39;44.45
69037;BME280;58547;51.690;5.186;2022-07-22T11:33:42;102104.34;;;23.40;46.17
69037;BME280;58547;51.690;5.186;2022-07-22T11:36:09;102093.44;;;23.53;45.75
69037;BME280;58547;51.690;5.186;2022-07-22T11:38:43;102086.75;;;23.78;44.80
69037;BME280;58547;51.690;5.186;2022-07-22T11:41:08;102084.34;;;24.04;44.20
69037;BME280;58547;51.690;5.186;2022-07-22T11:43:41;102082.06;;;24.29;44.96
69037;BME280;58547;51.690;5.186;2022-07-22T11:46:06;102074.66;;;24.22;42.62
69037;BME280;58547;51.690;5.186;2022-07-22T11:48:32;102074.38;;;24.06;44.26
69037;BME280;58547;51.690;5.186;2022-07-22T11:51:01;102060.78;;;24.09;44.93
69037;BME280;58547;51.690;5.186;2022-07-22T11:53:27;102060.47;;;24.22;43.54
69037;BME280;58547;51.690;5.186;2022-07-22T11:55:56;102057.81;;;24.22;43.04
69037;BME280;58547;51.690;5.186;2022-07-22T11:58:41;102064.91;;;24.41;42.93
69037;BME280;58547;51.690;5.186;2022-07-22T12:01:09;102051.84;;;24.57;41.54
69037;BME280;58547;51.690;5.186;2022-07-22T12:03:37;102057.97;;;24.77;42.33
69037;BME280;58547;51.690;5.186;2022-07-22T12:06:08;102047.03;;;24.98;42.10
69037;BME280;58547;51.690;5.186;2022-07-22T12:08:38;102049.88;;;24.87;42.03
69037;BME280;58547;51.690;5.186;2022-07-22T12:11:04;102040.25;;;25.04;40.20
69037;BME280;58547;51.690;5.186;2022-07-22T12:13:31;102035.59;;;25.34;41.45
69037;BME280;58547;51.690;5.186;2022-07-22T12:15:57;102049.03;;;25.42;42.93
69037;BME280;58547;51.690;5.186;2022-07-22T12:18:25;102039.03;;;25.16;40.69
69037;BME280;58547;51.690;5.186;2022-07-22T12:20:51;102039.41;;;24.76;42.02
69037;BME280;58547;51.690;5.186;2022-07-22T12:23:17;102040.97;;;24.69;43.11
69037;BME280;58547;51.690;5.186;2022-07-22T12:25:57;102044.72;;;24.86;42.87
69037;BME280;58547;51.690;5.186;2022-07-22T12:28:24;102043.16;;;24.83;43.17
69037;BME280;58547;51.690;5.186;2022-07-22T12:30:52;102029.09;;;24.91;42.85
69037;BME280;58547;51.690;5.186;2022-07-22T12:33:19;102033.28;;;24.93;41.58
69037;BME280;58547;51.690;5.186;2022-07-22T12:36:01;102038.25;;;25.06;41.60
69037;BME280;58547;51.690;5.186;2022-07-22T12:38:27;102037.53;;;24.86;40.96
69037;BME280;58547;51.690;5.186;2022-07-22T12:40:53;102027.81;;;24.95;40.50
69037;BME280;58547;51.690;5.186;2022-07-22T12:43:23;102022.88;;;25.18;42.02
69037;BME280;58547;51.690;5.186;2022-07-22T12:45:49;102030.63;;;25.21;40.92
69037;BME280;58547;51.690;5.186;2022-07-22T12:48:14;102023.00;;;25.26;40.03
69037;BME280;58547;51.690;5.186;2022-07-22T12:50:43;102021.00;;;25.28;40.60
69037;BME280;58547;51.690;5.186;2022-07-22T12:53:13;102029.88;;;25.01;41.98
69037;BME280;58547;51.690;5.186;2022-07-22T12:55:42;102032.91;;;24.60;41.49
69037;BME280;58547;51.690;5.186;2022-07-22T12:58:09;102031.72;;;24.26;42.89
69037;BME280;58547;51.690;5.186;2022-07-22T13:00:42;102024.94;;;24.31;42.86
69037;BME280;58547;51.690;5.186;2022-07-22T13:03:08;102030.44;;;24.30;42.64
69037;BME280;58547;51.690;5.186;2022-07-22T13:05:34;102020.34;;;24.23;44.32